This is the latest recevied weather packets stored in our database for station/object EB1BWO-11. If no packets are shown the sender has not sent any weather packets the latest 10 day(s).
| Time | Temp. | Humidity | Pressure | Rain* | Wind** | Luminosity | Snow |
|---|---|---|---|---|---|---|---|
| 1777647351 | 21.67° C | 64% | 1020.3 hPa | - | - | - | - |
| 1777646451 | 22.22° C | 64% | 1020.4 hPa | - | - | - | - |
| 1777645551 | 22.78° C | 62% | 1020.5 hPa | - | - | - | - |
| 1777644651 | 23.89° C | 61% | 1020.5 hPa | - | - | - | - |
| 1777643750 | 23.89° C | 60% | 1020.7 hPa | - | - | - | - |
| 1777642850 | 25° C | 58% | 1020.7 hPa | - | - | - | - |
| 1777641950 | 25° C | 58% | 1020.6 hPa | - | - | - | - |
| 1777641050 | 25° C | 59% | 1020.7 hPa | - | - | - | - |
| 1777640150 | 25.56° C | 57% | 1020.6 hPa | - | - | - | - |
| 1777639250 | 26.67° C | 56% | 1020.7 hPa | - | - | - | - |
| 1777638350 | 26.67° C | 56% | 1020.7 hPa | - | - | - | - |
| 1777637449 | 27.78° C | 55% | 1020.7 hPa | - | - | - | - |
| 1777636549 | 26.67° C | 54% | 1021 hPa | - | - | - | - |
| 1777635649 | 26.67° C | 56% | 1021.2 hPa | - | - | - | - |
| 1777634749 | 27.22° C | 54% | 1021.2 hPa | - | - | - | - |
| 1777633849 | 28.89° C | 50% | 1021.3 hPa | - | - | - | - |
| 1777632949 | 27.78° C | 54% | 1021.4 hPa | - | - | - | - |
| 1777632049 | 26.67° C | 55% | 1021.6 hPa | - | - | - | - |
| 1777631148 | 26.67° C | 54% | 1021.7 hPa | - | - | - | - |
| 1777630247 | 27.78° C | 54% | 1021.7 hPa | - | - | - | - |
| 1777629347 | 28.89° C | 51% | 1021.7 hPa | - | - | - | - |
| 1777628447 | 28.89° C | 53% | 1021.8 hPa | - | - | - | - |
| 1777627547 | 26.67° C | 57% | 1021.8 hPa | - | - | - | - |
| 1777626647 | 23.89° C | 61% | 1021.8 hPa | - | - | - | - |
| 1777625747 | 23.33° C | 61% | 1021.9 hPa | - | - | - | - |
* Rain since midnight (hover to see other rain measurements)
** Current wind speed in m/s (hover to see current wind gust speed)